World of Logs combat log analyzer allows gamers to save, share and analyze their raiding experiences conveniently and thoroughly in the Blizzard MMO World of Warcraft. If you're new here, make sure you check out the tour for a 1 minute introduction. If you have any questions, we're happy to answer them on the forums.

DPS HPS
Odyn
Helya
Guarm
Reports for Professor Putricide - statistics
# Date Time Damage DPS Guild Realm
601 10 Aug 2012 04:23 48.18M 182851.6 ensemble EU-Eredar
602 12 Sep 2011 04:23 48.18M 182831.6 Grim Funeral EU-Twisting Nether
603 22 Sep 2011 04:23 48.06M 182262.1 SundayFunday US-Stormscale
604 05 Apr 2012 04:23 48.22M 182709.6 Wipes on Trash US-Gorgonnash
605 19 Mar 2020 04:24 48.20M 182439.0 BlameTheMage EU-Frostmourne
606 24 Nov 2010 04:24 48.17M 182185.5 Disapprove EU-Eonar
607 01 Dec 2010 04:24 48.22M 182167.6 Spite And Malice US-Hellscream
608 10 Aug 2012 04:25 48.25M 182058.0 Amaranth Knights US-Proudmoore
609 21 Nov 2011 04:25 48.22M 181949.0 Soldiers of the Horde EU-Bloodscalp
610 16 Jun 2010 04:25 48.24M 181437.3 Slash Cry US-Ner'zhul
611 21 Nov 2010 04:25 48.20M 181229.1 BOB US-Aman'Thul
612 14 Apr 2012 04:25 48.35M 181795.4 Shells logz EU-Zenedar
613 22 Jul 2012 04:26 48.21M 181232.1 Ancient Order of Azeroth US-Feathermoon
614 21 Jun 2012 04:26 45.80M 172096.7 People Of Honour EU-Ясеневый лес
615 08 Jun 2012 04:26 48.20M 180909.4 Invîctus US-Thrall
616 18 Nov 2010 04:26 48.23M 180990.3 Entropy US-Hellscream
617 04 Oct 2011 04:26 49.78M 186512.6 Multidragons EU-Drek'Thar
618 20 Nov 2011 04:27 57.93M 216707.5 Fusion US-Uldaman
619 17 May 2020 04:27 48.23M 180205.2 I N S I G H T 1 EU-Dragonblight
620 17 May 2020 04:27 48.23M 180205.2 I N S I G H T 1 EU-Dragonblight
621 27 Sep 2010 04:28 48.22M 179543.8 Erste Liga EU-Azshara
622 27 Oct 2011 04:28 49.84M 185460.3 Jade Falcons EU-Frostwolf
623 12 Jan 2012 04:28 47.63M 177185.2 Vehement US-Maelstrom
624 24 Nov 2010 04:29 48.18M 178910.2 Havoc US-Khadgar
625 02 Nov 2010 04:29 48.20M 178883.1 The DMZ EU-Eonar
626 02 Nov 2010 04:29 48.20M 178869.1 The DMZ EU-Eonar
627 29 Jul 2012 04:29 48.15M 178404.8 Nova Via US-Cenarion Circle
628 27 Aug 2012 04:30 49.81M 184419.1 Questionable Intent US-Nagrand
629 29 Nov 2010 04:30 48.18M 178275.8 Optional US-Bleeding Hollow
630 17 Aug 2012 04:30 48.22M 178397.4 testlogs US-Sargeras
631 25 Apr 2020 04:31 48.27M 177860.8 Dark intent EU-Ragnaros
632 08 Jan 2012 04:31 48.33M 178071.0 Upload US-Khaz'goroth
633 26 Jul 2010 04:31 48.21M 177569.2 Erste Liga EU-Azshara
634 14 Apr 2020 04:31 48.20M 177420.6 DUDEWHEREISMYPPW US-Lightning's Blade
635 13 Oct 2010 04:32 48.19M 177154.0 Oblivion US-Tichondrius
636 13 Oct 2010 04:32 48.19M 177077.9 Oblivion US-Tichondrius
637 06 Sep 2010 04:32 48.21M 176849.5 SonneMondOrden EU-Die Aldor
638 24 Mar 2020 04:32 48.19M 176605.2 Ayaro's Logs US-Icecrown
639 24 Mar 2020 04:32 48.19M 176605.2 Ayaro's Logs US-Icecrown
640 10 Aug 2011 04:32 48.20M 176620.6 Trivial US-Hyjal
641 17 Oct 2010 04:33 48.26M 176631.2 Reverence US-Malorne
642 04 Mar 2012 04:33 48.28M 176665.7 Chimaera US-Alterac Mountains
643 27 Nov 2010 04:33 48.18M 176147.4 Les Blattes EU-Sargeras
644 27 Jan 2012 04:34 49.86M 181836.5 The Unnamed US-Tanaris
645 23 May 2020 04:34 48.25M 175669.0 Xiphoid Process US-Icecrown
646 17 Apr 2020 04:35 48.21M 175026.5 Carantina EU-Hellscream
647 14 May 2012 04:35 49.83M 180722.1 Mostly Harmless US-Undermine
648 03 Jul 2012 04:35 49.84M 180709.6 Braterstvo Krnov EU-Drak'thul
649 22 Apr 2020 04:36 52.39M 189740.2 AFK in the USA EU-Lordaeron
650 30 Sep 2011 04:36 49.75M 180009.5 House of Avalon US-Earthen Ring
651 07 Jul 2012 04:36 49.81M 180206.2 Temporalis Bellatoris EU-Das Syndikat
652 15 Feb 2012 04:36 49.86M 180124.6 Anathema US-Burning Blade
653 31 May 2020 04:37 48.21M 174021.4 Xiphoid Process US-Icecrown
654 03 Dec 2010 04:37 48.18M 173918.2 ZogZog EU-Sinstralis
655 09 Nov 2010 04:37 49.82M 179793.5 11T9 US-Bloodscalp
656 16 Jan 2012 04:37 48.23M 173927.2 Despair US-Frostwolf
657 04 Feb 2012 04:37 49.89M 179914.6 Eclissi Lunare EU-Tichondrius
658 24 Mar 2020 04:37 48.27M 174038.8 Advent US-Icecrown
659 17 Oct 2011 04:37 49.80M 179328.5 Grim Funeral EU-Twisting Nether
660 09 Sep 2011 04:37 49.79M 179263.3 Rédemptiøns EU-La Croisade écarlate
661 08 May 2020 04:37 48.37M 174064.2 nijhx EU-Aegwynn
662 21 Apr 2020 04:37 48.20M 173386.9 Advent US-Icecrown
663 04 Dec 2010 04:38 48.20M 173330.8 Lenny US-Firetree
664 18 Mar 2012 04:38 49.89M 179400.4 I Stand in Fire US-Magtheridon
665 14 Apr 2020 04:38 48.34M 173777.6 Shrubb EU-Stormscale
666 02 May 2012 04:38 48.25M 173330.1 Xylià-solo EU-Dalaran
667 16 Oct 2011 04:38 49.85M 178881.0 Ancient Order of Azeroth US-Feathermoon
668 21 Jan 2020 04:38 48.19M 172897.1 cyrk jak ja pierdole US-Zul'jin
669 23 Sep 2011 04:39 48.21M 172796.5 MM EU-Frostmane
670 04 Mar 2012 04:39 48.21M 172631.5 Ely US-Lightbringer
671 06 Apr 2020 04:39 52.64M 188481.9 Salty Sailors EU-Sen'jin
672 13 May 2020 04:39 52.42M 187665.2 AFK in the USA EU-Lordaeron
673 06 Apr 2020 04:39 52.64M 188456.2 Salty Sailors US-Dark Iron
674 09 Aug 2010 04:39 48.20M 172515.3 Erste Liga EU-Azshara
675 03 May 2012 04:39 49.92M 178480.9 Dignitas EU-Norgannon
676 04 Apr 2020 04:39 48.23M 172435.8 The Reveler Folk EU-Xavius
677 21 Apr 2020 04:39 48.29M 172592.2 Another Memory EU-Tarren Mill
678 03 May 2012 04:40 48.24M 171966.6 Horde von Firestorm EU-Madmortem
679 03 May 2020 04:40 48.21M 171815.8 La Carica dei 104 US-Icecrown
680 01 May 2020 04:40 48.24M 171847.9 Carantina EU-Hellscream
681 23 Jul 2012 04:40 48.80M 173725.0 Sanshy Logs US-Greymane
682 01 Dec 2010 04:41 48.19M 171490.4 Artum Inferniti EU-Arathor
683 05 Mar 2020 04:41 52.41M 186120.9 Beer Soul EU-Король-лич
684 12 Nov 2011 04:41 47.83M 169835.4 Clouded Minds US-Silvermoon
685 02 May 2020 04:41 52.37M 185908.8 crazyguild_12345 EU-Ясеневый лес
686 10 Sep 2011 04:41 48.28M 171308.6 The Fury of Stormrage US-Dentarg
687 13 Apr 2011 04:41 48.19M 170958.2 Die Schattenwölfe EU-Perenolde
688 16 Aug 2011 04:41 48.15M 170764.4 Grim Funeral EU-Twisting Nether
689 07 Apr 2010 04:42 34.49M 122244.8 Wrath EU-Sporeggar
690 20 Oct 2011 04:42 49.81M 176529.9 Scurvy Dogs US-Zangarmarsh
691 12 May 2020 04:42 48.21M 170486.9 Ayaro's Logs US-Icecrown
692 04 May 2020 04:43 48.24M 170447.3 Shrubb EU-Stormscale
693 05 May 2020 04:43 48.21M 170171.8 K H A L I L EU-Tarren Mill
694 27 May 2020 04:44 52.41M 184499.5 Pulp Fiction EU-Lordaeron
695 11 Apr 2020 04:44 52.36M 184216.8 crazyguild_12345 EU-Ясеневый лес
696 27 May 2020 04:44 52.47M 184485.5 The Forsaken EU-Dragonblight
697 21 Apr 2020 04:44 48.22M 169521.7 Shrubb EU-Stormscale
698 12 Apr 2020 04:44 48.23M 169396.2 The Reveler Folk EU-Xavius
699 13 Mar 2020 04:45 48.23M 169127.2 cyrk jak ja pierdole US-Zul'jin
700 03 Dec 2011 04:45 49.81M 174613.3 Reluctance US-Bonechewer

Please do not close the page with the ad you want to report.

I've posted a guide on how to report misbehaving ads on the forum. Please follow the instructions and help make the internet a safer place. Thanks for you time.